Time;durP1;ratioP1;P1;durP2;ratioP2;P2;SDS_P1;SDS_P2;PMS_P1;PMS_P2;Temp;Humidity;BMP_temperature;BMP_pressure;BME280_temperature;BME280_humidity;BME280_pressure;Samples;Min_cycle;Max_cycle;Signal;HPM_P1;HPM_P2
2021/11/01 00:08:41;;;;;;;33.7;38.3;;;;;;;2.6;81.7;98230;;;;
2021/11/01 00:18:40;;;;;;;30.1;37;;;;;;;2.4;81;98230;;;;
2021/11/01 00:28:40;;;;;;;30.1;37;;;;;;;2.1;80.6;98220;;;;
2021/11/01 00:38:40;;;;;;;30.1;37;;;;;;;1.9;80.2;98220;;;;
2021/11/01 00:48:40;;;;;;;28;36.2;;;;;;;1.7;80.6;98220;;;;
2021/11/01 00:58:40;;;;;;;28;36.2;;;;;;;1.8;82.1;98200;;;;
2021/11/01 01:08:40;;;;;;;28;36.2;;;;;;;1.8;81.9;98190;;;;
2021/11/01 01:18:41;;;;;;;30.6;38.2;;;;;;;1.7;81.8;98180;;;;
2021/11/01 01:28:40;;;;;;;30.6;38.2;;;;;;;1.6;81.7;98170;;;;
2021/11/01 01:38:40;;;;;;;30.6;38.2;;;;;;;1.5;81.5;98160;;;;
2021/11/01 01:48:40;;;;;;;29.2;39.5;;;;;;;1.6;83;98150;;;;
2021/11/01 01:58:42;;;;;;;29.2;39.5;;;;;;;1.6;82.7;98140;;;;
2021/11/01 02:09:40;;;;;;;29.2;39.5;;;;;;;1.5;82.3;98140;;;;
2021/11/01 02:19:45;;;;;;;30.5;36.7;;;;;;;1.3;81.5;98130;;;;
2021/11/01 02:29:40;;;;;;;30.5;36.7;;;;;;;1.2;81.8;98130;;;;
2021/11/01 02:39:40;;;;;;;30.5;36.7;;;;;;;1.1;81.9;98120;;;;
2021/11/01 02:49:40;;;;;;;34.7;42.5;;;;;;;1;82.2;98100;;;;
2021/11/01 02:59:40;;;;;;;34.7;42.5;;;;;;;1.1;82.7;98090;;;;
2021/11/01 03:09:40;;;;;;;34.7;42.5;;;;;;;1;82.6;98080;;;;
2021/11/01 03:20:40;;;;;;;30.8;36.8;;;;;;;1.1;82.9;98090;;;;
2021/11/01 03:30:40;;;;;;;30.8;36.8;;;;;;;1;82.4;98080;;;;
2021/11/01 03:40:42;;;;;;;30.8;36.8;;;;;;;0.9;81.8;98080;;;;
2021/11/01 03:51:45;;;;;;;32.5;40.8;;;;;;;0.7;82.2;98070;;;;
2021/11/01 04:01:40;;;;;;;32.5;40.8;;;;;;;0.8;82.9;98050;;;;
2021/11/01 04:11:42;;;;;;;30.3;39.3;;;;;;;0.9;82.6;98050;;;;
2021/11/01 04:21:41;;;;;;;30.3;39.3;;;;;;;0.8;82.4;98040;;;;
2021/11/01 04:31:44;;;;;;;30.3;39.3;;;;;;;0.9;83.1;98040;;;;
2021/11/01 04:41:53;;;;;;;32.6;39.5;;;;;;;0.9;83.1;98030;;;;
2021/11/01 05:01:42;;;;;;;32.6;39.5;;;;;;;0.9;82.4;98000;;;;
2021/11/01 05:12:41;;;;;;;29.6;35.7;;;;;;;1;83.6;98000;;;;
2021/11/01 05:22:47;;;;;;;29.6;35.7;;;;;;;0.9;82.6;97980;;;;
2021/11/01 05:32:42;;;;;;;29.6;35.7;;;;;;;0.8;82.3;97980;;;;
2021/11/01 05:42:40;;;;;;;31.4;37.9;;;;;;;0.8;82.3;98000;;;;
2021/11/01 05:52:42;;;;;;;31.4;37.9;;;;;;;0.8;82;98000;;;;
2021/11/01 06:02:46;;;;;;;31.4;37.9;;;;;;;0.7;81.4;98000;;;;
2021/11/01 06:13:40;;;;;;;29.8;37.9;;;;;;;0.9;82.1;98010;;;;
2021/11/01 06:23:40;;;;;;;29.8;37.9;;;;;;;1.1;82.4;98000;;;;
2021/11/01 06:33:56;;;;;;;29.8;37.9;;;;;;;1.5;82.4;98010;;;;
2021/11/01 06:43:56;;;;;;;30.9;36.5;;;;;;;1.8;82.3;98010;;;;
2021/11/01 06:54:27;;;;;;;30.9;36.5;;;;;;;2.2;82;98010;;;;
2021/11/01 07:14:51;;;;;;;34;39.9;;;;;;;3.4;80.8;98000;;;;
2021/11/01 08:25:21;;;;;;;59.7;73.2;;;;;;;7.9;73.4;97970;;;;
2021/11/01 08:45:12;;;;;;;20.7;26.4;;;;;;;9.3;71.6;97970;;;;
2021/11/01 09:04:51;;;;;;;20.7;26.4;;;;;;;10.5;67.8;97940;;;;
2021/11/01 09:24:44;;;;;;;18.4;25.1;;;;;;;11.9;63.2;97930;;;;
2021/11/01 09:35:49;;;;;;;18.4;25.1;;;;;;;12.6;60.4;97920;;;;
2021/11/01 09:45:40;;;;;;;15.1;19.9;;;;;;;13.3;57.7;97910;;;;
2021/11/01 09:56:46;;;;;;;15.1;19.9;;;;;;;14.1;58;97910;;;;
2021/11/01 10:06:40;;;;;;;15.1;19.9;;;;;;;14.7;50.3;97890;;;;
2021/11/01 10:17:44;;;;;;;7.8;11.9;;;;;;;15.1;47.1;97880;;;;
2021/11/01 10:26:40;;;;;;;7.8;11.9;;;;;;;15.5;46.7;97880;;;;
2021/11/01 10:36:40;;;;;;;7.8;11.9;;;;;;;16;47.6;97870;;;;
2021/11/01 10:47:36;;;;;;;6;10.1;;;;;;;16.6;47.9;97850;;;;
2021/11/01 10:57:09;;;;;;;6;10.1;;;;;;;16.7;44.7;97850;;;;
2021/11/01 11:17:19;;;;;;;5.5;8.8;;;;;;;17.2;44.1;97830;;;;
2021/11/01 11:27:10;;;;;;;5.5;8.8;;;;;;;17.2;43.1;97830;;;;
2021/11/01 11:37:38;;;;;;;5.5;8.8;;;;;;;17.4;43.3;97810;;;;
2021/11/01 11:47:15;;;;;;;6.2;9.1;;;;;;;17.7;43.1;97800;;;;
2021/11/01 11:56:40;;;;;;;6.2;9.1;;;;;;;17.8;42.2;97800;;;;
2021/11/01 12:06:45;;;;;;;6.2;9.1;;;;;;;18;41.8;97790;;;;
2021/11/01 12:17:13;;;;;;;5.5;9.7;;;;;;;18.2;43.9;97790;;;;
2021/11/01 12:26:43;;;;;;;5.5;9.7;;;;;;;18.1;42.1;97770;;;;
2021/11/01 12:36:47;;;;;;;5.5;9.7;;;;;;;18.1;41.6;97780;;;;
2021/11/01 12:48:07;;;;;;;4.6;7.8;;;;;;;18.1;41.1;97770;;;;
2021/11/01 12:57:44;;;;;;;4.6;7.8;;;;;;;18.4;42.2;97760;;;;
2021/11/01 13:06:50;;;;;;;4.6;7.8;;;;;;;18.4;41.5;97750;;;;
2021/11/01 13:18:05;;;;;;;5.2;7.7;;;;;;;18.3;42.3;97730;;;;
2021/11/01 13:27:05;;;;;;;5.2;7.7;;;;;;;18.3;42.3;97730;;;;
2021/11/01 13:37:41;;;;;;;5.2;7.7;;;;;;;18.1;42.8;97710;;;;
2021/11/01 13:47:40;;;;;;;4.7;7.8;;;;;;;18;43.4;97700;;;;
2021/11/01 13:57:42;;;;;;;4.7;7.8;;;;;;;17.8;43.1;97690;;;;
2021/11/01 14:18:50;;;;;;;4.5;7.4;;;;;;;16.6;46.7;97700;;;;
2021/11/01 14:28:49;;;;;;;4.5;7.4;;;;;;;16;47.1;97700;;;;
2021/11/01 19:08:19;;;;;;;51.2;57.6;;;;;;;7.6;71.6;97700;;;;
2021/11/01 21:31:12;;;;;;;31.3;36.2;;;;;;;8.7;70.3;97690;;;;
2021/11/01 21:42:12;;;;;;;31.3;36.2;;;;;;;8.7;70.6;97680;;;;
2021/11/01 21:52:14;;;;;;;31.3;36.2;;;;;;;8.8;70.6;97660;;;;
2021/11/01 22:22:32;;;;;;;34.5;39.2;;;;;;;9;70.3;97610;;;;
2021/11/01 22:32:29;;;;;;;26.8;31.4;;;;;;;9.7;68.7;97600;;;;
2021/11/01 22:42:25;;;;;;;26.8;31.4;;;;;;;10.1;69.1;97600;;;;
2021/11/01 23:02:12;;;;;;;12.5;15.2;;;;;;;10.4;66.8;97590;;;;
2021/11/01 23:33:13;;;;;;;24.2;29.6;;;;;;;8.8;70.7;97580;;;;
2021/11/01 23:44:12;;;;;;;24.2;29.6;;;;;;;8.7;71;97570;;;;
2021/11/01 23:54:25;;;;;;;24.2;29.6;;;;;;;8.8;71.2;97560;;;;
